createdAt,value
2019-06-27T00:02:19.701Z,101173.34
2019-06-27T00:04:51.561Z,101178.15
2019-06-27T00:07:23.519Z,101175.44
2019-06-27T00:09:55.425Z,101184.00
2019-06-27T00:12:26.637Z,101179.91
2019-06-27T00:14:58.437Z,101184.16
2019-06-27T00:17:30.407Z,101187.00
2019-06-27T00:20:01.603Z,101187.04
2019-06-27T00:22:32.824Z,101191.62
2019-06-27T00:25:04.905Z,101195.58
2019-06-27T00:27:36.793Z,101196.77
2019-06-27T00:30:09.433Z,101198.24
2019-06-27T00:32:40.747Z,101203.46
2019-06-27T00:35:12.822Z,101206.16
2019-06-27T00:37:44.697Z,101216.42
2019-06-27T00:40:17.637Z,101213.23
2019-06-27T00:42:48.865Z,101222.73
2019-06-27T00:45:21.083Z,101216.83
2019-06-27T00:47:54.005Z,101221.20
2019-06-27T00:50:25.267Z,101215.47
2019-06-27T00:52:57.089Z,101216.92
2019-06-27T00:55:28.965Z,101222.42
2019-06-27T00:58:01.008Z,101220.59
2019-06-27T01:00:32.997Z,101221.27
2019-06-27T01:03:08.021Z,101228.31
2019-06-27T01:05:39.975Z,101222.80
2019-06-27T01:08:11.193Z,101215.95
2019-06-27T01:10:42.975Z,101225.19
2019-06-27T01:13:14.901Z,101225.76
2019-06-27T01:15:46.130Z,101225.44
2019-06-27T01:18:18.021Z,101227.10
2019-06-27T01:20:49.838Z,101233.62
2019-06-27T01:23:21.723Z,101232.69
2019-06-27T01:25:53.555Z,101234.00
2019-06-27T01:28:25.609Z,101242.66
2019-06-27T01:30:57.476Z,101244.88
2019-06-27T01:33:29.472Z,101243.67
2019-06-27T01:36:00.670Z,101244.28
2019-06-27T01:38:32.625Z,101245.47
2019-06-27T01:41:04.580Z,101242.04
2019-06-27T01:43:36.557Z,101232.15
2019-06-27T01:46:08.500Z,101234.06
2019-06-27T01:48:40.373Z,101236.80
2019-06-27T01:51:12.361Z,101238.03
2019-06-27T01:53:44.561Z,101241.79
2019-06-27T01:56:16.840Z,101253.20
2019-06-27T01:58:56.540Z,101247.50
2019-06-27T02:01:28.393Z,101253.86
2019-06-27T02:04:00.525Z,101247.69
2019-06-27T02:06:34.032Z,101251.47
2019-06-27T02:09:07.752Z,101245.21
2019-06-27T02:11:39.196Z,101258.33
2019-06-27T02:14:11.001Z,101253.59
2019-06-27T02:16:49.747Z,101257.66
2019-06-27T02:19:21.012Z,101264.38
2019-06-27T02:21:52.985Z,101269.54
2019-06-27T02:24:24.972Z,101275.16
2019-06-27T02:26:57.167Z,101269.78
2019-06-27T02:29:29.281Z,101274.22
2019-06-27T02:32:01.330Z,101277.78
2019-06-27T02:34:36.027Z,101277.49
2019-06-27T02:37:09.531Z,101285.70
2019-06-27T02:39:41.602Z,101275.95
2019-06-27T02:42:13.545Z,101278.32
2019-06-27T02:44:46.856Z,101282.33
2019-06-27T02:47:18.349Z,101279.88
2019-06-27T02:49:54.184Z,101288.23
2019-06-27T02:52:29.615Z,101289.38
2019-06-27T02:55:07.673Z,101289.42
2019-06-27T02:57:43.257Z,101290.23
2019-06-27T03:00:16.622Z,101305.22
2019-06-27T03:02:55.789Z,101294.84
2019-06-27T03:05:32.733Z,101305.41
2019-06-27T03:08:09.219Z,101316.09
2019-06-27T03:10:41.117Z,101314.30
2019-06-27T03:13:14.321Z,101325.33
2019-06-27T03:15:49.597Z,101319.04
2019-06-27T03:18:20.869Z,101322.02
2019-06-27T03:20:52.807Z,101322.02
2019-06-27T03:23:24.840Z,101323.73
2019-06-27T03:25:56.697Z,101323.92
2019-06-27T03:28:49.761Z,101333.13
2019-06-27T03:31:02.485Z,101331.13
2019-06-27T03:33:36.385Z,101344.55
2019-06-27T03:36:09.446Z,101347.88
2019-06-27T03:38:44.220Z,101352.05
2019-06-27T03:41:15.601Z,101357.20
2019-06-27T03:43:47.650Z,101350.09
2019-06-27T03:46:19.652Z,101353.03
2019-06-27T03:48:51.591Z,101368.68
2019-06-27T03:51:23.435Z,101361.56
2019-06-27T03:53:55.399Z,101364.38
2019-06-27T03:56:26.648Z,101360.83
2019-06-27T03:59:11.288Z,101366.27
2019-06-27T04:01:31.451Z,101372.78
2019-06-27T04:04:03.674Z,101371.65
2019-06-27T04:06:35.714Z,101374.47
2019-06-27T04:09:07.323Z,101379.91
2019-06-27T04:11:39.464Z,101381.41
2019-06-27T04:14:11.487Z,101379.87
2019-06-27T04:16:48.610Z,101376.18
2019-06-27T04:19:17.230Z,101385.72
2019-06-27T04:21:49.297Z,101394.84
2019-06-27T04:24:22.325Z,101395.78
2019-06-27T04:26:54.248Z,101400.89
2019-06-27T04:29:33.643Z,101399.47
2019-06-27T04:32:00.040Z,101411.46
2019-06-27T04:34:32.072Z,101408.25
2019-06-27T04:37:04.125Z,101409.73
2019-06-27T04:39:35.439Z,101400.18
2019-06-27T04:42:39.163Z,101416.50
2019-06-27T04:45:11.251Z,101417.73
2019-06-27T04:47:42.795Z,101413.70
2019-06-27T04:50:15.026Z,101418.73
2019-06-27T04:52:46.555Z,101409.14
2019-06-27T04:55:18.720Z,101420.75
2019-06-27T04:57:50.761Z,101432.90
2019-06-27T05:00:30.120Z,101427.00
2019-06-27T05:03:01.437Z,101432.14
2019-06-27T05:05:35.104Z,101423.86
2019-06-27T05:08:07.212Z,101430.45
2019-06-27T05:10:39.287Z,101433.02
2019-06-27T05:13:11.387Z,101425.17
2019-06-27T05:19:38.007Z,101432.72
2019-06-27T05:22:09.271Z,101441.83
2019-06-27T05:24:41.338Z,101437.09
2019-06-27T05:27:13.472Z,101435.44
2019-06-27T05:29:45.459Z,101437.95
2019-06-27T05:32:16.759Z,101442.18
2019-06-27T05:34:48.646Z,101444.59
2019-06-27T05:37:19.838Z,101433.47
2019-06-27T05:39:55.014Z,101438.95
2019-06-27T05:42:28.194Z,101437.63
2019-06-27T05:45:00.222Z,101442.41
2019-06-27T05:47:32.246Z,101441.29
2019-06-27T05:50:04.200Z,101434.42
2019-06-27T05:52:36.159Z,101439.03
2019-06-27T05:55:08.554Z,101445.22
2019-06-27T05:57:40.539Z,101451.45
2019-06-27T06:00:27.681Z,101451.98
2019-06-27T06:02:46.328Z,101452.49
2019-06-27T06:05:18.414Z,101460.81
2019-06-27T06:07:50.405Z,101471.00
2019-06-27T06:10:22.937Z,101461.08
2019-06-27T06:12:59.418Z,101471.67
2019-06-27T06:15:30.881Z,101461.78
2019-06-27T06:18:03.430Z,101470.22
2019-06-27T06:20:35.003Z,101465.59
2019-06-27T06:23:08.770Z,101459.68
2019-06-27T06:25:41.618Z,101457.92
2019-06-27T06:28:12.954Z,101457.71
2019-06-27T06:30:48.530Z,101459.86
2019-06-27T06:33:23.943Z,101455.78
2019-06-27T06:35:55.195Z,101466.63
2019-06-27T06:38:36.475Z,101456.45
2019-06-27T06:41:14.027Z,101456.45
2019-06-27T06:43:45.697Z,101467.08
2019-06-27T06:46:17.602Z,101460.91
2019-06-27T06:48:48.845Z,101461.80
2019-06-27T06:51:21.505Z,101455.78
2019-06-27T06:53:53.742Z,101461.96
2019-06-27T06:56:25.613Z,101466.63
2019-06-27T06:58:57.469Z,101464.34
2019-06-27T07:01:29.439Z,101450.11
2019-06-27T07:04:01.404Z,101457.25
2019-06-27T07:06:33.326Z,101464.63
2019-06-27T07:09:06.149Z,101456.58
2019-06-27T07:11:38.097Z,101463.89
2019-06-27T07:14:09.998Z,101462.88
2019-06-27T07:16:41.920Z,101457.05
2019-06-27T07:19:14.701Z,101456.30
2019-06-27T07:21:46.652Z,101463.48
2019-06-27T07:24:17.954Z,101464.59
2019-06-27T07:26:49.761Z,101462.08
2019-06-27T07:29:21.777Z,101464.61
2019-06-27T07:31:53.802Z,101469.11
2019-06-27T07:34:25.832Z,101456.30
2019-06-27T07:36:57.162Z,101471.32
2019-06-27T07:39:28.339Z,101459.18
2019-06-27T07:42:00.288Z,101461.73
2019-06-27T07:44:32.416Z,101459.85
2019-06-27T07:47:04.287Z,101453.16
2019-06-27T07:49:36.153Z,101453.99
2019-06-27T07:52:08.053Z,101453.64
2019-06-27T07:54:39.243Z,101453.74
2019-06-27T07:57:11.046Z,101450.65
2019-06-27T07:59:42.895Z,101454.95
2019-06-27T08:02:16.367Z,101455.92
2019-06-27T08:04:48.311Z,101461.70
2019-06-27T08:07:21.313Z,101463.84
2019-06-27T08:09:53.401Z,101464.02
2019-06-27T08:12:24.748Z,101462.91
2019-06-27T08:14:56.652Z,101470.19
2019-06-27T08:17:27.865Z,101466.92
2019-06-27T08:19:59.667Z,101466.69
2019-06-27T08:22:31.545Z,101466.77
2019-06-27T08:25:02.976Z,101454.14
2019-06-27T08:27:34.776Z,101472.73
2019-06-27T08:30:08.686Z,101462.31
2019-06-27T08:32:40.897Z,101465.34
2019-06-27T08:35:12.005Z,101462.98
2019-06-27T08:37:43.248Z,101466.88
2019-06-27T08:40:15.665Z,101460.72
2019-06-27T08:42:47.596Z,101469.88
2019-06-27T08:45:19.754Z,101470.25
2019-06-27T08:47:51.734Z,101465.48
2019-06-27T08:50:23.580Z,101466.55
2019-06-27T08:52:55.480Z,101464.52
2019-06-27T08:55:28.520Z,101452.66
2019-06-27T08:58:00.449Z,101465.14
2019-06-27T09:00:32.400Z,101452.55
2019-06-27T09:03:04.340Z,101451.00
2019-06-27T09:05:35.628Z,101451.48
2019-06-27T09:08:07.544Z,101449.12
2019-06-27T09:10:38.777Z,101448.10
2019-06-27T09:13:09.960Z,101434.78
2019-06-27T09:15:41.117Z,101436.13
2019-06-27T09:18:12.896Z,101446.52
2019-06-27T09:20:49.190Z,101430.48
2019-06-27T09:23:22.852Z,101438.88
2019-06-27T09:25:54.192Z,101454.00
2019-06-27T09:28:25.568Z,101448.62
2019-06-27T09:31:00.774Z,101449.73
2019-06-27T09:33:33.313Z,101444.56
2019-06-27T09:36:11.924Z,101438.94
2019-06-27T09:38:44.756Z,101449.16
2019-06-27T09:41:16.010Z,101455.50
2019-06-27T09:43:47.168Z,101444.03
2019-06-27T09:46:20.388Z,101441.33
2019-06-27T09:48:53.236Z,101447.36
2019-06-27T09:51:26.665Z,101441.89
2019-06-27T09:54:00.540Z,101428.97
2019-06-27T09:56:31.829Z,101436.11
2019-06-27T09:59:05.981Z,101425.33
2019-06-27T10:01:37.488Z,101428.78
2019-06-27T10:04:08.677Z,101428.89
2019-06-27T10:06:41.948Z,101430.72
2019-06-27T10:09:13.250Z,101429.09
2019-06-27T10:11:44.601Z,101435.56
2019-06-27T10:14:15.916Z,101428.66
2019-06-27T10:16:47.873Z,101423.09
2019-06-27T10:19:20.178Z,101420.98
2019-06-27T10:21:55.840Z,101413.05
2019-06-27T10:24:30.183Z,101412.46
2019-06-27T10:27:04.055Z,101408.56
2019-06-27T10:29:35.425Z,101407.14
2019-06-27T10:32:06.793Z,101413.37
2019-06-27T10:34:39.066Z,101398.34
2019-06-27T10:37:10.497Z,101416.07
2019-06-27T10:39:41.822Z,101398.28
2019-06-27T10:42:13.117Z,101410.43
2019-06-27T10:44:45.356Z,101405.61
2019-06-27T10:47:33.574Z,101418.16
2019-06-27T10:50:08.142Z,101419.60
2019-06-27T10:52:40.800Z,101405.44
2019-06-27T10:55:12.060Z,101412.53
2019-06-27T10:57:43.352Z,101413.70
2019-06-27T11:00:17.025Z,101416.50
2019-06-27T11:02:48.372Z,101411.70
2019-06-27T11:05:19.487Z,101401.91
2019-06-27T11:07:51.331Z,101395.07
2019-06-27T11:10:22.651Z,101401.25
2019-06-27T11:12:54.039Z,101398.08
2019-06-27T11:15:26.748Z,101392.28
2019-06-27T11:18:00.432Z,101388.92
2019-06-27T11:20:32.473Z,101384.86
2019-06-27T11:23:03.828Z,101390.16
2019-06-27T11:25:40.371Z,101403.50
2019-06-27T11:28:11.872Z,101386.30
2019-06-27T11:30:43.857Z,101378.59
2019-06-27T11:33:31.252Z,101385.53
2019-06-27T11:35:51.192Z,101381.48
2019-06-27T11:38:22.483Z,101376.18
2019-06-27T11:40:53.652Z,101377.88
2019-06-27T11:43:24.806Z,101372.37
2019-06-27T11:45:56.012Z,101377.33
2019-06-27T11:48:27.178Z,101389.75
2019-06-27T11:50:58.440Z,101372.29
2019-06-27T11:53:30.251Z,101371.91
2019-06-27T11:56:02.252Z,101381.66
2019-06-27T11:58:34.364Z,101369.37
2019-06-27T12:01:06.366Z,101373.41
2019-06-27T12:03:48.854Z,101375.08
2019-06-27T12:06:11.975Z,101378.15
2019-06-27T12:08:43.227Z,101375.15
2019-06-27T12:11:14.479Z,101359.93
2019-06-27T12:13:46.307Z,101357.05
2019-06-27T12:16:18.359Z,101357.34
2019-06-27T12:18:49.607Z,101353.08
2019-06-27T12:21:20.743Z,101352.49
2019-06-27T12:23:53.687Z,101353.23
2019-06-27T12:26:24.883Z,101355.69
2019-06-27T12:28:56.744Z,101347.27
2019-06-27T12:31:27.952Z,101344.86
2019-06-27T12:34:06.728Z,101344.12
2019-06-27T12:36:32.767Z,101330.62
2019-06-27T12:39:04.335Z,101351.52
2019-06-27T12:41:35.943Z,101324.45
2019-06-27T12:44:07.736Z,101334.92
2019-06-27T12:46:38.935Z,101324.57
2019-06-27T12:49:10.183Z,101332.95
2019-06-27T12:51:42.178Z,101325.18
2019-06-27T12:54:14.156Z,101328.52
2019-06-27T12:56:46.019Z,101326.29
2019-06-27T12:59:17.939Z,101315.27
2019-06-27T13:01:50.002Z,101312.11
2019-06-27T13:04:24.147Z,101313.61
2019-06-27T13:06:55.839Z,101309.19
2019-06-27T13:09:27.738Z,101300.77
2019-06-27T13:11:59.717Z,101300.52
2019-06-27T13:14:31.690Z,101290.47
2019-06-27T13:17:03.535Z,101296.52
2019-06-27T13:19:34.803Z,101301.14
2019-06-27T13:22:06.702Z,101317.65
2019-06-27T13:24:38.633Z,101306.25
2019-06-27T13:27:10.567Z,101291.51
2019-06-27T13:29:42.590Z,101295.81
2019-06-27T13:32:14.602Z,101302.19
2019-06-27T13:34:46.496Z,101295.48
2019-06-27T13:37:21.075Z,101304.52
2019-06-27T13:40:34.288Z,101293.12
2019-06-27T13:47:26.430Z,101302.42
2019-06-27T13:50:00.500Z,101289.84
2019-06-27T13:52:33.074Z,101289.68
2019-06-27T13:55:04.676Z,101295.34
2019-06-27T13:57:37.618Z,101296.45
2019-06-27T14:00:19.999Z,101285.95
2019-06-27T14:02:52.002Z,101283.84
2019-06-27T14:05:23.840Z,101288.22
2019-06-27T14:07:55.704Z,101284.70
2019-06-27T14:10:27.551Z,101292.59
2019-06-27T14:12:59.528Z,101271.50
2019-06-27T14:15:31.475Z,101296.55
2019-06-27T14:18:03.592Z,101282.59
2019-06-27T14:20:35.627Z,101276.86
2019-06-27T14:23:07.601Z,101266.56
2019-06-27T14:25:38.954Z,101264.14
2019-06-27T14:28:10.185Z,101268.19
2019-06-27T14:30:42.102Z,101264.00
2019-06-27T14:34:34.102Z,101259.45
2019-06-27T15:06:46.275Z,101256.05
2019-06-27T15:09:35.226Z,101283.50
2019-06-27T15:12:06.418Z,101253.58
2019-06-27T15:14:43.651Z,101249.40
2019-06-27T15:17:14.799Z,101244.28
2019-06-27T15:19:59.414Z,101238.56
2019-06-27T15:22:29.499Z,101237.48
2019-06-27T15:25:00.683Z,101241.55
2019-06-27T15:27:32.482Z,101227.44
2019-06-27T15:30:03.822Z,101220.07
2019-06-27T15:32:35.826Z,101220.25
2019-06-27T15:35:08.178Z,101225.02
2019-06-27T15:37:39.529Z,101229.72
2019-06-27T15:40:14.347Z,101224.23
2019-06-27T15:42:46.362Z,101222.66
2019-06-27T15:45:18.047Z,101222.68
2019-06-27T15:47:49.193Z,101219.08
2019-06-27T15:50:21.195Z,101213.77
2019-06-27T15:52:53.144Z,101211.45
2019-06-27T15:55:25.126Z,101207.74
2019-06-27T15:57:56.436Z,101211.08
2019-06-27T16:00:28.472Z,101227.98
2019-06-27T16:03:00.506Z,101213.67
2019-06-27T16:05:32.172Z,101223.53
2019-06-27T16:08:04.135Z,101219.26
2019-06-27T16:10:35.398Z,101217.32
2019-06-27T16:13:06.735Z,101213.66
2019-06-27T16:15:38.665Z,101206.57
2019-06-27T16:18:11.065Z,101213.04
2019-06-27T16:20:43.051Z,101201.80
2019-06-27T16:23:14.946Z,101202.11
2019-06-27T16:25:50.107Z,101208.67
2019-06-27T16:28:21.317Z,101202.00
2019-06-27T16:30:53.125Z,101205.20
2019-06-27T16:33:25.013Z,101208.62
2019-06-27T16:35:56.933Z,101211.77
2019-06-27T16:38:28.182Z,101215.95
2019-06-27T16:41:00.223Z,101203.84
2019-06-27T16:43:31.621Z,101218.82
2019-06-27T16:46:03.633Z,101211.88
2019-06-27T16:48:35.724Z,101208.67
2019-06-27T16:51:07.905Z,101206.59
2019-06-27T16:53:39.217Z,101203.46
2019-06-27T16:56:11.196Z,101203.33
2019-06-27T16:58:43.145Z,101200.72
2019-06-27T17:01:14.689Z,101203.67
2019-06-27T17:03:46.573Z,101206.77
2019-06-27T17:06:17.930Z,101205.05
2019-06-27T17:08:51.349Z,101197.42
2019-06-27T17:11:23.333Z,101203.94
2019-06-27T17:13:55.250Z,101193.08
2019-06-27T17:16:27.288Z,101209.02
2019-06-27T17:18:59.206Z,101201.61
2019-06-27T17:21:34.737Z,101208.77
2019-06-27T17:24:06.765Z,101202.21
2019-06-27T17:26:38.068Z,101208.76
2019-06-27T17:29:12.908Z,101205.08
2019-06-27T17:31:44.873Z,101202.23
2019-06-27T17:34:18.500Z,101207.28
2019-06-27T17:36:57.388Z,101199.37
2019-06-27T17:39:24.468Z,101206.19
2019-06-27T17:41:56.600Z,101209.50
2019-06-27T17:44:30.169Z,101217.55
2019-06-27T17:47:02.215Z,101206.44
2019-06-27T17:49:34.237Z,101206.91
2019-06-27T17:52:06.176Z,101210.40
2019-06-27T17:54:38.164Z,101205.55
2019-06-27T17:57:10.048Z,101207.28
2019-06-27T17:59:42.167Z,101203.17
2019-06-27T18:02:14.109Z,101207.48
2019-06-27T18:04:45.400Z,101206.20
2019-06-27T18:07:17.247Z,101202.20
2019-06-27T18:09:49.170Z,101202.73
2019-06-27T18:12:21.166Z,101199.03
2019-06-27T18:14:54.314Z,101203.93
2019-06-27T18:17:33.631Z,101201.73
2019-06-27T18:19:59.343Z,101195.17
2019-06-27T18:22:31.337Z,101207.15
2019-06-27T18:25:03.373Z,101206.61
2019-06-27T18:27:35.549Z,101205.83
2019-06-27T18:30:09.032Z,101201.74
2019-06-27T18:32:41.320Z,101202.52
2019-06-27T18:35:16.092Z,101207.30
2019-06-27T18:37:47.534Z,101213.78
2019-06-27T18:40:19.893Z,101215.58
2019-06-27T18:42:51.988Z,101213.88
2019-06-27T18:45:23.296Z,101212.06
2019-06-27T18:47:54.597Z,101222.80
2019-06-27T18:50:27.881Z,101217.92
2019-06-27T18:53:00.136Z,101226.72
2019-06-27T18:55:32.363Z,101226.70
2019-06-27T18:58:06.355Z,101223.61
2019-06-27T19:00:38.227Z,101232.53
2019-06-27T19:03:09.599Z,101226.38
2019-06-27T19:05:42.603Z,101229.20
2019-06-27T19:08:15.971Z,101233.11
2019-06-27T19:10:48.082Z,101239.70
2019-06-27T19:13:20.223Z,101234.31
2019-06-27T19:15:52.407Z,101236.81
2019-06-27T19:18:42.404Z,101241.71
2019-06-27T19:21:20.267Z,101246.43
2019-06-27T19:24:20.525Z,101244.69
2019-06-27T19:26:55.719Z,101247.22
2019-06-27T19:29:28.403Z,101251.61
2019-06-27T19:34:38.648Z,101258.91
2019-06-27T19:37:12.836Z,101257.69
2019-06-27T19:39:52.772Z,101263.73
2019-06-27T19:42:23.323Z,101273.38
2019-06-27T19:44:57.782Z,101274.22
2019-06-27T19:47:34.165Z,101274.06
2019-06-27T19:50:06.235Z,101272.41
2019-06-27T19:52:47.196Z,101274.23
2019-06-27T19:55:29.996Z,101283.30
2019-06-27T19:58:04.207Z,101288.16
2019-06-27T20:00:40.064Z,101293.12
2019-06-27T20:03:13.019Z,101288.36
2019-06-27T20:05:44.296Z,101302.37
2019-06-27T20:08:19.499Z,101303.44
2019-06-27T20:10:50.176Z,101304.95
2019-06-27T20:13:22.039Z,101306.66
2019-06-27T20:15:53.232Z,101308.56
2019-06-27T20:18:24.455Z,101301.98
2019-06-27T20:20:55.655Z,101309.52
2019-06-27T20:23:27.617Z,101303.40
2019-06-27T20:25:59.539Z,101304.91
2019-06-27T20:28:31.659Z,101307.28
2019-06-27T20:31:02.965Z,101307.78
2019-06-27T20:33:35.003Z,101311.06
2019-06-27T20:36:06.995Z,101321.34
2019-06-27T20:38:39.219Z,101324.55
2019-06-27T20:41:10.523Z,101329.29
2019-06-27T20:43:42.395Z,101332.72
2019-06-27T20:46:14.352Z,101331.92
2019-06-27T20:48:47.327Z,101335.44
2019-06-27T20:51:19.559Z,101345.41
2019-06-27T20:53:51.074Z,101340.06
2019-06-27T20:56:23.279Z,101343.70
2019-06-27T20:58:55.521Z,101346.86
2019-06-27T21:01:31.631Z,101347.19
2019-06-27T21:04:03.639Z,101350.67
2019-06-27T21:06:35.003Z,101356.12
2019-06-27T21:09:06.453Z,101356.03
2019-06-27T21:11:37.657Z,101360.03
2019-06-27T21:14:09.559Z,101365.79
2019-06-27T21:16:41.506Z,101370.30
2019-06-27T21:19:13.451Z,101373.45
2019-06-27T21:21:45.416Z,101361.47
2019-06-27T21:24:16.684Z,101368.12
2019-06-27T21:26:48.136Z,101373.50
2019-06-27T21:29:19.962Z,101369.70
2019-06-27T21:31:51.286Z,101370.77
2019-06-27T21:34:23.184Z,101362.61
2019-06-27T21:36:54.582Z,101370.80
2019-06-27T21:39:25.800Z,101380.51
2019-06-27T21:41:57.694Z,101383.95
2019-06-27T21:44:29.644Z,101385.25
2019-06-27T21:47:00.955Z,101391.45
2019-06-27T21:49:32.858Z,101391.23
2019-06-27T21:52:04.835Z,101395.08
2019-06-27T21:54:36.716Z,101406.73
2019-06-27T21:57:09.731Z,101410.20
2019-06-27T21:59:41.867Z,101414.87
2019-06-27T22:02:13.894Z,101416.73
2019-06-27T22:04:45.897Z,101411.90
2019-06-27T22:07:17.892Z,101413.70
2019-06-27T22:09:49.221Z,101415.73
2019-06-27T22:12:21.082Z,101413.11
2019-06-27T22:14:53.159Z,101424.03
2019-06-27T22:17:25.164Z,101418.09
2019-06-27T22:20:13.717Z,101423.44
2019-06-27T22:22:31.123Z,101420.03
2019-06-27T22:25:03.179Z,101422.38
2019-06-27T22:27:34.670Z,101427.78
2019-06-27T22:30:06.878Z,101421.25
2019-06-27T22:32:38.896Z,101428.56
2019-06-27T22:35:10.623Z,101424.55
2019-06-27T22:37:59.650Z,101430.80
2019-06-27T22:40:50.451Z,101426.23
2019-06-27T22:43:39.670Z,101424.05
2019-06-27T22:46:29.178Z,101426.27
2019-06-27T22:49:01.206Z,101424.51
2019-06-27T22:51:50.801Z,101428.36
2019-06-27T22:54:23.958Z,101422.02
2019-06-27T22:56:55.782Z,101425.88
2019-06-27T22:59:27.116Z,101429.22
2019-06-27T23:01:58.301Z,101431.90
2019-06-27T23:04:30.310Z,101429.09
2019-06-27T23:07:02.247Z,101433.28
2019-06-27T23:09:34.183Z,101433.78
2019-06-27T23:12:06.031Z,101433.98
2019-06-27T23:14:37.882Z,101438.88
2019-06-27T23:17:09.808Z,101442.95
2019-06-27T23:19:41.792Z,101442.07
2019-06-27T23:22:13.658Z,101448.52
2019-06-27T23:24:44.895Z,101455.59
2019-06-27T23:27:16.076Z,101445.21
2019-06-27T23:29:47.836Z,101445.88
2019-06-27T23:32:19.059Z,101445.70
2019-06-27T23:34:50.235Z,101442.51
2019-06-27T23:37:22.062Z,101445.46
2019-06-27T23:39:53.405Z,101449.84
2019-06-27T23:42:25.214Z,101452.98
2019-06-27T23:44:57.122Z,101450.15
2019-06-27T23:47:28.425Z,101449.55
2019-06-27T23:50:00.238Z,101452.77
2019-06-27T23:52:31.513Z,101450.22
2019-06-27T23:55:02.728Z,101451.90
2019-06-27T23:57:34.874Z,101452.75
